sensor_id;sensor_type;location;lat;lon;timestamp;P1;durP1;ratioP1;P2;durP2;ratioP2
66485;SDS011;53303;47.476;8.084;2023-02-15T00:01:39;13.57;;;6.78;;
66485;SDS011;53303;47.476;8.084;2023-02-15T00:04:07;11.52;;;6.10;;
66485;SDS011;53303;47.476;8.084;2023-02-15T00:06:37;12.27;;;6.60;;
66485;SDS011;53303;47.476;8.084;2023-02-15T00:09:05;12.93;;;6.45;;
66485;SDS011;53303;47.476;8.084;2023-02-15T00:11:30;12.27;;;6.57;;
66485;SDS011;53303;47.476;8.084;2023-02-15T00:14:15;11.65;;;7.20;;
66485;SDS011;53303;47.476;8.084;2023-02-15T00:16:44;11.18;;;6.15;;
66485;SDS011;53303;47.476;8.084;2023-02-15T00:19:14;11.68;;;6.40;;
66485;SDS011;53303;47.476;8.084;2023-02-15T00:21:44;11.50;;;6.18;;
66485;SDS011;53303;47.476;8.084;2023-02-15T00:24:13;10.23;;;5.75;;
66485;SDS011;53303;47.476;8.084;2023-02-15T00:26:44;11.40;;;6.22;;
66485;SDS011;53303;47.476;8.084;2023-02-15T00:29:11;13.90;;;7.32;;
66485;SDS011;53303;47.476;8.084;2023-02-15T00:31:37;13.10;;;6.35;;
66485;SDS011;53303;47.476;8.084;2023-02-15T00:36:32;11.48;;;6.97;;
66485;SDS011;53303;47.476;8.084;2023-02-15T00:38:57;10.60;;;5.57;;
66485;SDS011;53303;47.476;8.084;2023-02-15T00:41:23;12.45;;;6.00;;
66485;SDS011;53303;47.476;8.084;2023-02-15T00:43:53;11.90;;;6.47;;
66485;SDS011;53303;47.476;8.084;2023-02-15T00:46:19;13.90;;;6.40;;
66485;SDS011;53303;47.476;8.084;2023-02-15T00:48:44;10.95;;;6.00;;
66485;SDS011;53303;47.476;8.084;2023-02-15T00:51:12;13.05;;;6.05;;
66485;SDS011;53303;47.476;8.084;2023-02-15T00:53:37;11.63;;;6.55;;
66485;SDS011;53303;47.476;8.084;2023-02-15T00:56:05;11.88;;;6.70;;
66485;SDS011;53303;47.476;8.084;2023-02-15T00:58:30;12.55;;;6.03;;
66485;SDS011;53303;47.476;8.084;2023-02-15T01:01:01;11.30;;;6.78;;
66485;SDS011;53303;47.476;8.084;2023-02-15T01:03:32;13.50;;;6.38;;
66485;SDS011;53303;47.476;8.084;2023-02-15T01:05:58;11.27;;;6.78;;
66485;SDS011;53303;47.476;8.084;2023-02-15T01:08:23;10.50;;;6.07;;
66485;SDS011;53303;47.476;8.084;2023-02-15T01:10:54;11.85;;;6.28;;
66485;SDS011;53303;47.476;8.084;2023-02-15T01:13:27;16.05;;;6.82;;
66485;SDS011;53303;47.476;8.084;2023-02-15T01:15:53;12.25;;;6.60;;
66485;SDS011;53303;47.476;8.084;2023-02-15T01:18:22;11.18;;;6.82;;
66485;SDS011;53303;47.476;8.084;2023-02-15T01:20:49;11.77;;;6.35;;
66485;SDS011;53303;47.476;8.084;2023-02-15T01:23:15;10.88;;;5.95;;
66485;SDS011;53303;47.476;8.084;2023-02-15T01:25:41;11.63;;;6.03;;
66485;SDS011;53303;47.476;8.084;2023-02-15T01:28:09;12.02;;;5.85;;
66485;SDS011;53303;47.476;8.084;2023-02-15T01:30:37;14.15;;;6.18;;
66485;SDS011;53303;47.476;8.084;2023-02-15T01:33:05;11.43;;;5.88;;
66485;SDS011;53303;47.476;8.084;2023-02-15T01:35:32;11.05;;;5.97;;
66485;SDS011;53303;47.476;8.084;2023-02-15T01:38:00;12.23;;;5.82;;
66485;SDS011;53303;47.476;8.084;2023-02-15T01:40:26;13.15;;;5.90;;
66485;SDS011;53303;47.476;8.084;2023-02-15T01:42:54;12.02;;;6.03;;
66485;SDS011;53303;47.476;8.084;2023-02-15T01:45:24;10.55;;;5.60;;
66485;SDS011;53303;47.476;8.084;2023-02-15T01:50:34;11.00;;;6.25;;
66485;SDS011;53303;47.476;8.084;2023-02-15T01:55:40;11.18;;;6.38;;
66485;SDS011;53303;47.476;8.084;2023-02-15T01:58:13;11.20;;;6.03;;
66485;SDS011;53303;47.476;8.084;2023-02-15T02:00:41;12.60;;;6.15;;
66485;SDS011;53303;47.476;8.084;2023-02-15T02:03:09;10.27;;;6.10;;
66485;SDS011;53303;47.476;8.084;2023-02-15T02:05:35;9.52;;;6.18;;
66485;SDS011;53303;47.476;8.084;2023-02-15T02:08:07;10.35;;;6.15;;
66485;SDS011;53303;47.476;8.084;2023-02-15T02:10:34;11.05;;;6.40;;
66485;SDS011;53303;47.476;8.084;2023-02-15T02:13:03;10.23;;;5.95;;
66485;SDS011;53303;47.476;8.084;2023-02-15T02:15:43;12.82;;;6.45;;
66485;SDS011;53303;47.476;8.084;2023-02-15T02:20:54;10.85;;;6.63;;
66485;SDS011;53303;47.476;8.084;2023-02-15T02:40:20;12.68;;;6.78;;
66485;SDS011;53303;47.476;8.084;2023-02-15T02:43:15;9.32;;;6.00;;
66485;SDS011;53303;47.476;8.084;2023-02-15T02:45:52;10.75;;;6.15;;
66485;SDS011;53303;47.476;8.084;2023-02-15T02:48:22;11.35;;;5.78;;
66485;SDS011;53303;47.476;8.084;2023-02-15T02:50:51;12.35;;;6.20;;
66485;SDS011;53303;47.476;8.084;2023-02-15T02:53:18;10.20;;;5.97;;
66485;SDS011;53303;47.476;8.084;2023-02-15T02:55:50;9.57;;;5.40;;
66485;SDS011;53303;47.476;8.084;2023-02-15T03:00:51;9.80;;;5.45;;
66485;SDS011;53303;47.476;8.084;2023-02-15T03:03:22;10.27;;;6.03;;
66485;SDS011;53303;47.476;8.084;2023-02-15T03:06:00;10.70;;;5.20;;
66485;SDS011;53303;47.476;8.084;2023-02-15T03:08:33;9.35;;;6.15;;
66485;SDS011;53303;47.476;8.084;2023-02-15T03:11:03;10.07;;;5.95;;
66485;SDS011;53303;47.476;8.084;2023-02-15T03:13:29;9.40;;;5.82;;
66485;SDS011;53303;47.476;8.084;2023-02-15T03:15:57;9.43;;;5.47;;
66485;SDS011;53303;47.476;8.084;2023-02-15T03:18:44;9.80;;;5.85;;
66485;SDS011;53303;47.476;8.084;2023-02-15T03:21:18;10.23;;;5.32;;
66485;SDS011;53303;47.476;8.084;2023-02-15T03:23:52;8.90;;;5.80;;
66485;SDS011;53303;47.476;8.084;2023-02-15T03:26:25;10.75;;;5.97;;
66485;SDS011;53303;47.476;8.084;2023-02-15T03:28:55;9.32;;;5.50;;
66485;SDS011;53303;47.476;8.084;2023-02-15T03:31:24;10.77;;;5.80;;
66485;SDS011;53303;47.476;8.084;2023-02-15T03:34:03;8.90;;;5.35;;
66485;SDS011;53303;47.476;8.084;2023-02-15T03:39:23;9.43;;;5.32;;
66485;SDS011;53303;47.476;8.084;2023-02-15T03:41:58;8.70;;;5.07;;
66485;SDS011;53303;47.476;8.084;2023-02-15T03:44:48;8.77;;;5.80;;
66485;SDS011;53303;47.476;8.084;2023-02-15T03:47:31;8.90;;;5.53;;
66485;SDS011;53303;47.476;8.084;2023-02-15T03:50:05;9.73;;;5.85;;
66485;SDS011;53303;47.476;8.084;2023-02-15T03:52:54;9.43;;;5.50;;
66485;SDS011;53303;47.476;8.084;2023-02-15T03:55:27;11.43;;;5.75;;
66485;SDS011;53303;47.476;8.084;2023-02-15T03:57:57;9.88;;;6.10;;
66485;SDS011;53303;47.476;8.084;2023-02-15T04:00:43;10.30;;;5.72;;
66485;SDS011;53303;47.476;8.084;2023-02-15T04:03:39;11.25;;;5.70;;
66485;SDS011;53303;47.476;8.084;2023-02-15T04:06:08;12.35;;;6.13;;
66485;SDS011;53303;47.476;8.084;2023-02-15T04:08:37;9.70;;;5.53;;
66485;SDS011;53303;47.476;8.084;2023-02-15T04:11:21;13.63;;;5.43;;
66485;SDS011;53303;47.476;8.084;2023-02-15T04:13:46;13.52;;;5.90;;
66485;SDS011;53303;47.476;8.084;2023-02-15T04:16:11;13.75;;;5.68;;
66485;SDS011;53303;47.476;8.084;2023-02-15T04:18:40;13.30;;;6.07;;
66485;SDS011;53303;47.476;8.084;2023-02-15T04:21:28;10.65;;;6.45;;
66485;SDS011;53303;47.476;8.084;2023-02-15T04:24:15;9.85;;;5.70;;
66485;SDS011;53303;47.476;8.084;2023-02-15T04:29:25;10.65;;;6.18;;
66485;SDS011;53303;47.476;8.084;2023-02-15T04:31:55;11.60;;;5.47;;
66485;SDS011;53303;47.476;8.084;2023-02-15T04:34:21;9.82;;;5.70;;
66485;SDS011;53303;47.476;8.084;2023-02-15T04:36:46;13.38;;;5.90;;
66485;SDS011;53303;47.476;8.084;2023-02-15T04:39:13;9.63;;;4.97;;
66485;SDS011;53303;47.476;8.084;2023-02-15T04:41:39;10.68;;;5.95;;
66485;SDS011;53303;47.476;8.084;2023-02-15T04:44:05;16.42;;;5.47;;
66485;SDS011;53303;47.476;8.084;2023-02-15T04:46:32;11.93;;;6.22;;
66485;SDS011;53303;47.476;8.084;2023-02-15T04:48:58;12.45;;;5.93;;
66485;SDS011;53303;47.476;8.084;2023-02-15T04:51:26;12.10;;;6.32;;
66485;SDS011;53303;47.476;8.084;2023-02-15T04:53:51;11.90;;;6.15;;
66485;SDS011;53303;47.476;8.084;2023-02-15T04:56:20;8.50;;;5.28;;
66485;SDS011;53303;47.476;8.084;2023-02-15T04:58:46;9.60;;;5.82;;
66485;SDS011;53303;47.476;8.084;2023-02-15T05:01:11;11.15;;;6.05;;
66485;SDS011;53303;47.476;8.084;2023-02-15T05:03:39;11.45;;;6.10;;
66485;SDS011;53303;47.476;8.084;2023-02-15T05:06:06;14.13;;;5.90;;
66485;SDS011;53303;47.476;8.084;2023-02-15T05:08:32;11.35;;;6.63;;
66485;SDS011;53303;47.476;8.084;2023-02-15T05:11:00;13.35;;;6.20;;
66485;SDS011;53303;47.476;8.084;2023-02-15T05:13:25;15.50;;;6.88;;
66485;SDS011;53303;47.476;8.084;2023-02-15T05:15:53;12.40;;;5.82;;
66485;SDS011;53303;47.476;8.084;2023-02-15T05:18:22;10.63;;;5.32;;
66485;SDS011;53303;47.476;8.084;2023-02-15T05:20:47;11.90;;;5.60;;
66485;SDS011;53303;47.476;8.084;2023-02-15T05:23:18;14.07;;;5.28;;
66485;SDS011;53303;47.476;8.084;2023-02-15T05:25:50;13.73;;;5.53;;
66485;SDS011;53303;47.476;8.084;2023-02-15T05:28:35;14.52;;;5.85;;
66485;SDS011;53303;47.476;8.084;2023-02-15T05:31:05;10.25;;;5.20;;
66485;SDS011;53303;47.476;8.084;2023-02-15T05:33:44;12.80;;;5.68;;
66485;SDS011;53303;47.476;8.084;2023-02-15T05:36:14;10.75;;;4.93;;
66485;SDS011;53303;47.476;8.084;2023-02-15T05:38:44;10.57;;;5.55;;
66485;SDS011;53303;47.476;8.084;2023-02-15T05:41:10;10.75;;;5.85;;
66485;SDS011;53303;47.476;8.084;2023-02-15T05:43:38;12.07;;;5.22;;
66485;SDS011;53303;47.476;8.084;2023-02-15T05:46:06;11.38;;;5.32;;
66485;SDS011;53303;47.476;8.084;2023-02-15T05:48:32;10.15;;;4.97;;
66485;SDS011;53303;47.476;8.084;2023-02-15T05:53:30;10.90;;;5.30;;
66485;SDS011;53303;47.476;8.084;2023-02-15T05:55:57;8.65;;;4.65;;
66485;SDS011;53303;47.476;8.084;2023-02-15T05:58:25;8.77;;;4.40;;
66485;SDS011;53303;47.476;8.084;2023-02-15T06:00:52;10.00;;;4.80;;
66485;SDS011;53303;47.476;8.084;2023-02-15T06:03:17;13.25;;;5.07;;
66485;SDS011;53303;47.476;8.084;2023-02-15T06:05:43;10.88;;;4.93;;
66485;SDS011;53303;47.476;8.084;2023-02-15T06:08:09;9.57;;;4.97;;
66485;SDS011;53303;47.476;8.084;2023-02-15T06:10:39;8.07;;;4.85;;
66485;SDS011;53303;47.476;8.084;2023-02-15T06:13:05;9.55;;;5.22;;
66485;SDS011;53303;47.476;8.084;2023-02-15T06:15:31;11.65;;;4.80;;
66485;SDS011;53303;47.476;8.084;2023-02-15T06:17:58;9.60;;;4.82;;
66485;SDS011;53303;47.476;8.084;2023-02-15T06:20:24;11.20;;;5.00;;
66485;SDS011;53303;47.476;8.084;2023-02-15T06:22:52;10.63;;;4.93;;
66485;SDS011;53303;47.476;8.084;2023-02-15T06:25:18;11.40;;;5.50;;
66485;SDS011;53303;47.476;8.084;2023-02-15T06:27:43;9.45;;;4.50;;
66485;SDS011;53303;47.476;8.084;2023-02-15T06:30:11;9.07;;;5.03;;
66485;SDS011;53303;47.476;8.084;2023-02-15T06:32:37;9.75;;;4.78;;
66485;SDS011;53303;47.476;8.084;2023-02-15T06:35:05;10.32;;;5.00;;
66485;SDS011;53303;47.476;8.084;2023-02-15T06:37:33;9.52;;;5.50;;
66485;SDS011;53303;47.476;8.084;2023-02-15T06:40:01;7.82;;;4.30;;
66485;SDS011;53303;47.476;8.084;2023-02-15T06:42:31;11.35;;;4.82;;
66485;SDS011;53303;47.476;8.084;2023-02-15T06:44:59;8.35;;;4.90;;
66485;SDS011;53303;47.476;8.084;2023-02-15T06:47:25;9.43;;;4.90;;
66485;SDS011;53303;47.476;8.084;2023-02-15T06:49:50;9.07;;;4.50;;
66485;SDS011;53303;47.476;8.084;2023-02-15T06:52:16;7.63;;;4.38;;
66485;SDS011;53303;47.476;8.084;2023-02-15T06:54:43;8.05;;;4.93;;
66485;SDS011;53303;47.476;8.084;2023-02-15T06:57:13;8.32;;;4.82;;
66485;SDS011;53303;47.476;8.084;2023-02-15T06:59:38;7.57;;;4.38;;
66485;SDS011;53303;47.476;8.084;2023-02-15T07:02:04;8.80;;;4.60;;
66485;SDS011;53303;47.476;8.084;2023-02-15T07:04:29;7.43;;;4.22;;
66485;SDS011;53303;47.476;8.084;2023-02-15T07:06:54;8.55;;;4.30;;
66485;SDS011;53303;47.476;8.084;2023-02-15T07:09:20;7.50;;;4.38;;
66485;SDS011;53303;47.476;8.084;2023-02-15T07:11:46;8.05;;;4.50;;
66485;SDS011;53303;47.476;8.084;2023-02-15T07:14:30;8.35;;;4.18;;
66485;SDS011;53303;47.476;8.084;2023-02-15T07:16:58;7.55;;;4.45;;
66485;SDS011;53303;47.476;8.084;2023-02-15T07:19:26;8.05;;;4.72;;
66485;SDS011;53303;47.476;8.084;2023-02-15T07:21:51;7.97;;;4.25;;
66485;SDS011;53303;47.476;8.084;2023-02-15T07:24:16;10.15;;;4.90;;
66485;SDS011;53303;47.476;8.084;2023-02-15T07:26:42;7.07;;;4.10;;
66485;SDS011;53303;47.476;8.084;2023-02-15T07:29:10;7.88;;;4.20;;
66485;SDS011;53303;47.476;8.084;2023-02-15T07:31:38;8.45;;;4.30;;
66485;SDS011;53303;47.476;8.084;2023-02-15T07:34:05;8.75;;;4.15;;
66485;SDS011;53303;47.476;8.084;2023-02-15T07:36:31;7.38;;;4.88;;
66485;SDS011;53303;47.476;8.084;2023-02-15T07:38:59;7.25;;;3.88;;
66485;SDS011;53303;47.476;8.084;2023-02-15T07:41:25;7.80;;;5.10;;
66485;SDS011;53303;47.476;8.084;2023-02-15T07:43:50;8.57;;;4.35;;
66485;SDS011;53303;47.476;8.084;2023-02-15T07:46:18;6.68;;;3.88;;
66485;SDS011;53303;47.476;8.084;2023-02-15T07:48:44;8.27;;;4.30;;
66485;SDS011;53303;47.476;8.084;2023-02-15T07:51:11;8.50;;;5.13;;
66485;SDS011;53303;47.476;8.084;2023-02-15T07:53:39;7.78;;;4.65;;
66485;SDS011;53303;47.476;8.084;2023-02-15T07:56:09;8.27;;;4.65;;
66485;SDS011;53303;47.476;8.084;2023-02-15T07:58:36;8.18;;;4.13;;
66485;SDS011;53303;47.476;8.084;2023-02-15T08:01:25;8.45;;;4.43;;
66485;SDS011;53303;47.476;8.084;2023-02-15T08:04:00;7.57;;;4.47;;
66485;SDS011;53303;47.476;8.084;2023-02-15T08:06:28;7.43;;;4.65;;
66485;SDS011;53303;47.476;8.084;2023-02-15T08:08:55;8.73;;;4.78;;
66485;SDS011;53303;47.476;8.084;2023-02-15T08:11:24;8.60;;;4.43;;
66485;SDS011;53303;47.476;8.084;2023-02-15T08:14:07;7.57;;;4.13;;
66485;SDS011;53303;47.476;8.084;2023-02-15T08:16:42;7.40;;;4.10;;
66485;SDS011;53303;47.476;8.084;2023-02-15T08:21:40;7.57;;;4.05;;
66485;SDS011;53303;47.476;8.084;2023-02-15T08:24:08;8.93;;;5.20;;
66485;SDS011;53303;47.476;8.084;2023-02-15T08:26:37;7.72;;;4.80;;
66485;SDS011;53303;47.476;8.084;2023-02-15T08:29:03;8.07;;;5.13;;
66485;SDS011;53303;47.476;8.084;2023-02-15T08:31:30;6.22;;;3.65;;
66485;SDS011;53303;47.476;8.084;2023-02-15T08:33:58;6.72;;;4.35;;
66485;SDS011;53303;47.476;8.084;2023-02-15T08:36:24;7.55;;;4.30;;
66485;SDS011;53303;47.476;8.084;2023-02-15T08:38:52;7.43;;;4.18;;
66485;SDS011;53303;47.476;8.084;2023-02-15T08:41:25;7.45;;;4.93;;
66485;SDS011;53303;47.476;8.084;2023-02-15T08:43:55;6.38;;;3.63;;
66485;SDS011;53303;47.476;8.084;2023-02-15T08:46:25;7.60;;;4.30;;
66485;SDS011;53303;47.476;8.084;2023-02-15T08:48:55;7.45;;;4.50;;
66485;SDS011;53303;47.476;8.084;2023-02-15T08:51:32;7.10;;;4.28;;
66485;SDS011;53303;47.476;8.084;2023-02-15T08:54:00;7.35;;;4.03;;
66485;SDS011;53303;47.476;8.084;2023-02-15T08:56:30;6.45;;;3.80;;
66485;SDS011;53303;47.476;8.084;2023-02-15T08:58:58;7.85;;;4.15;;
66485;SDS011;53303;47.476;8.084;2023-02-15T09:01:25;7.03;;;4.07;;
66485;SDS011;53303;47.476;8.084;2023-02-15T09:03:55;7.63;;;5.03;;
66485;SDS011;53303;47.476;8.084;2023-02-15T09:06:22;6.18;;;3.60;;
66485;SDS011;53303;47.476;8.084;2023-02-15T09:08:48;7.25;;;4.60;;
66485;SDS011;53303;47.476;8.084;2023-02-15T09:13:58;6.90;;;4.13;;
66485;SDS011;53303;47.476;8.084;2023-02-15T09:16:25;6.72;;;4.55;;
66485;SDS011;53303;47.476;8.084;2023-02-15T09:18:54;7.10;;;4.82;;
66485;SDS011;53303;47.476;8.084;2023-02-15T09:21:22;6.30;;;3.95;;
66485;SDS011;53303;47.476;8.084;2023-02-15T09:23:51;6.75;;;3.97;;
66485;SDS011;53303;47.476;8.084;2023-02-15T09:26:23;7.07;;;4.35;;
66485;SDS011;53303;47.476;8.084;2023-02-15T09:28:53;7.07;;;4.10;;
66485;SDS011;53303;47.476;8.084;2023-02-15T09:31:21;6.63;;;4.78;;
66485;SDS011;53303;47.476;8.084;2023-02-15T09:33:50;7.55;;;4.28;;
66485;SDS011;53303;47.476;8.084;2023-02-15T09:36:16;6.82;;;4.18;;
66485;SDS011;53303;47.476;8.084;2023-02-15T09:38:47;7.00;;;4.25;;
66485;SDS011;53303;47.476;8.084;2023-02-15T09:56:06;5.95;;;3.55;;
66485;SDS011;53303;47.476;8.084;2023-02-15T10:01:33;6.88;;;4.25;;
66485;SDS011;53303;47.476;8.084;2023-02-15T10:04:18;6.38;;;4.00;;
66485;SDS011;53303;47.476;8.084;2023-02-15T10:10:00;7.53;;;4.00;;
66485;SDS011;53303;47.476;8.084;2023-02-15T10:21:02;6.30;;;3.88;;
66485;SDS011;53303;47.476;8.084;2023-02-15T10:23:55;6.32;;;3.67;;
66485;SDS011;53303;47.476;8.084;2023-02-15T10:29:03;6.68;;;3.65;;
66485;SDS011;53303;47.476;8.084;2023-02-15T10:31:50;7.65;;;4.32;;
66485;SDS011;53303;47.476;8.084;2023-02-15T10:40:37;7.03;;;3.72;;
66485;SDS011;53303;47.476;8.084;2023-02-15T10:52:02;6.47;;;4.45;;
66485;SDS011;53303;47.476;8.084;2023-02-15T10:54:35;7.15;;;3.95;;
66485;SDS011;53303;47.476;8.084;2023-02-15T11:07:57;6.05;;;3.90;;
66485;SDS011;53303;47.476;8.084;2023-02-15T11:13:18;6.72;;;4.20;;
66485;SDS011;53303;47.476;8.084;2023-02-15T11:23:27;6.72;;;4.10;;
66485;SDS011;53303;47.476;8.084;2023-02-15T11:25:57;8.98;;;3.95;;
66485;SDS011;53303;47.476;8.084;2023-02-15T11:28:36;6.45;;;4.28;;
66485;SDS011;53303;47.476;8.084;2023-02-15T11:31:12;6.90;;;4.38;;
66485;SDS011;53303;47.476;8.084;2023-02-15T11:36:22;8.05;;;4.57;;
66485;SDS011;53303;47.476;8.084;2023-02-15T11:38:56;7.15;;;4.90;;
66485;SDS011;53303;47.476;8.084;2023-02-15T11:41:28;7.10;;;3.95;;
66485;SDS011;53303;47.476;8.084;2023-02-15T11:46:31;7.68;;;4.82;;
66485;SDS011;53303;47.476;8.084;2023-02-15T11:48:56;7.05;;;4.30;;
66485;SDS011;53303;47.476;8.084;2023-02-15T11:51:23;6.65;;;4.45;;
66485;SDS011;53303;47.476;8.084;2023-02-15T11:53:51;7.10;;;4.53;;
66485;SDS011;53303;47.476;8.084;2023-02-15T11:56:19;7.05;;;4.10;;
66485;SDS011;53303;47.476;8.084;2023-02-15T11:58:47;7.18;;;4.70;;
66485;SDS011;53303;47.476;8.084;2023-02-15T12:04:29;7.25;;;3.92;;
66485;SDS011;53303;47.476;8.084;2023-02-15T12:09:37;6.72;;;4.47;;
66485;SDS011;53303;47.476;8.084;2023-02-15T12:14:47;6.43;;;4.05;;
66485;SDS011;53303;47.476;8.084;2023-02-15T12:17:13;7.47;;;5.00;;
66485;SDS011;53303;47.476;8.084;2023-02-15T12:19:41;6.88;;;4.53;;
66485;SDS011;53303;47.476;8.084;2023-02-15T12:22:10;8.07;;;4.90;;
66485;SDS011;53303;47.476;8.084;2023-02-15T12:24:48;7.97;;;4.78;;
66485;SDS011;53303;47.476;8.084;2023-02-15T12:29:47;7.30;;;4.38;;
66485;SDS011;53303;47.476;8.084;2023-02-15T12:32:25;8.82;;;4.47;;
66485;SDS011;53303;47.476;8.084;2023-02-15T12:35:12;8.27;;;4.22;;
66485;SDS011;53303;47.476;8.084;2023-02-15T12:38:05;7.03;;;5.03;;
66485;SDS011;53303;47.476;8.084;2023-02-15T12:43:46;7.72;;;4.75;;
66485;SDS011;53303;47.476;8.084;2023-02-15T12:46:13;7.45;;;4.47;;
66485;SDS011;53303;47.476;8.084;2023-02-15T12:48:44;7.95;;;4.97;;
66485;SDS011;53303;47.476;8.084;2023-02-15T12:51:13;7.55;;;4.78;;
66485;SDS011;53303;47.476;8.084;2023-02-15T12:53:42;6.88;;;4.45;;
66485;SDS011;53303;47.476;8.084;2023-02-15T12:56:10;7.13;;;4.38;;
66485;SDS011;53303;47.476;8.084;2023-02-15T12:58:36;7.18;;;4.70;;
66485;SDS011;53303;47.476;8.084;2023-02-15T13:03:39;8.18;;;4.43;;
66485;SDS011;53303;47.476;8.084;2023-02-15T13:06:28;7.75;;;5.20;;
66485;SDS011;53303;47.476;8.084;2023-02-15T13:09:18;6.68;;;4.57;;
66485;SDS011;53303;47.476;8.084;2023-02-15T13:11:50;7.93;;;4.30;;
66485;SDS011;53303;47.476;8.084;2023-02-15T13:16:47;7.80;;;5.25;;
66485;SDS011;53303;47.476;8.084;2023-02-15T13:19:35;8.23;;;5.30;;
66485;SDS011;53303;47.476;8.084;2023-02-15T13:22:22;7.68;;;5.10;;
66485;SDS011;53303;47.476;8.084;2023-02-15T13:25:03;7.18;;;5.03;;
66485;SDS011;53303;47.476;8.084;2023-02-15T13:27:40;7.15;;;4.43;;
66485;SDS011;53303;47.476;8.084;2023-02-15T13:30:14;7.07;;;4.22;;
66485;SDS011;53303;47.476;8.084;2023-02-15T13:32:43;7.32;;;4.78;;
66485;SDS011;53303;47.476;8.084;2023-02-15T13:35:14;7.55;;;4.57;;
66485;SDS011;53303;47.476;8.084;2023-02-15T13:42:56;6.82;;;4.28;;
66485;SDS011;53303;47.476;8.084;2023-02-15T13:53:56;7.00;;;4.38;;
66485;SDS011;53303;47.476;8.084;2023-02-15T14:16:07;7.63;;;4.72;;
66485;SDS011;53303;47.476;8.084;2023-02-15T14:21:16;7.47;;;4.82;;
66485;SDS011;53303;47.476;8.084;2023-02-15T14:24:02;7.80;;;5.30;;
66485;SDS011;53303;47.476;8.084;2023-02-15T14:32:26;7.90;;;5.40;;
66485;SDS011;53303;47.476;8.084;2023-02-15T14:37:29;8.45;;;4.95;;
66485;SDS011;53303;47.476;8.084;2023-02-15T14:40:05;7.68;;;5.50;;
66485;SDS011;53303;47.476;8.084;2023-02-15T14:43:08;7.30;;;4.97;;
66485;SDS011;53303;47.476;8.084;2023-02-15T14:48:28;8.70;;;4.75;;
66485;SDS011;53303;47.476;8.084;2023-02-15T14:50:58;9.20;;;5.35;;
66485;SDS011;53303;47.476;8.084;2023-02-15T14:58:54;7.55;;;5.57;;
66485;SDS011;53303;47.476;8.084;2023-02-15T15:01:27;7.65;;;4.65;;
66485;SDS011;53303;47.476;8.084;2023-02-15T15:04:11;7.53;;;5.63;;
66485;SDS011;53303;47.476;8.084;2023-02-15T15:06:56;8.10;;;5.07;;
66485;SDS011;53303;47.476;8.084;2023-02-15T15:09:42;7.80;;;5.63;;
66485;SDS011;53303;47.476;8.084;2023-02-15T15:14:51;7.97;;;5.22;;
66485;SDS011;53303;47.476;8.084;2023-02-15T15:23:39;7.97;;;5.45;;
66485;SDS011;53303;47.476;8.084;2023-02-15T15:25:45;9.80;;;5.47;;
66485;SDS011;53303;47.476;8.084;2023-02-15T15:31:00;9.90;;;6.03;;
66485;SDS011;53303;47.476;8.084;2023-02-15T15:42:13;8.45;;;5.53;;
66485;SDS011;53303;47.476;8.084;2023-02-15T15:51:01;9.38;;;6.40;;
66485;SDS011;53303;47.476;8.084;2023-02-15T15:53:34;7.50;;;4.88;;
66485;SDS011;53303;47.476;8.084;2023-02-15T15:56:07;8.05;;;5.57;;
66485;SDS011;53303;47.476;8.084;2023-02-15T15:58:41;8.27;;;5.78;;
66485;SDS011;53303;47.476;8.084;2023-02-15T16:01:15;7.93;;;5.78;;
66485;SDS011;53303;47.476;8.084;2023-02-15T16:03:50;9.30;;;5.43;;
66485;SDS011;53303;47.476;8.084;2023-02-15T16:06:30;7.88;;;5.22;;
66485;SDS011;53303;47.476;8.084;2023-02-15T16:09:09;8.25;;;5.63;;
66485;SDS011;53303;47.476;8.084;2023-02-15T16:11:52;7.82;;;5.20;;
66485;SDS011;53303;47.476;8.084;2023-02-15T16:14:28;10.48;;;5.80;;
66485;SDS011;53303;47.476;8.084;2023-02-15T16:16:56;8.32;;;5.60;;
66485;SDS011;53303;47.476;8.084;2023-02-15T16:19:27;9.15;;;5.78;;
66485;SDS011;53303;47.476;8.084;2023-02-15T16:21:57;9.15;;;5.72;;
66485;SDS011;53303;47.476;8.084;2023-02-15T16:29:41;10.05;;;5.40;;
66485;SDS011;53303;47.476;8.084;2023-02-15T16:34:51;8.98;;;6.10;;
66485;SDS011;53303;47.476;8.084;2023-02-15T16:37:20;9.40;;;5.63;;
66485;SDS011;53303;47.476;8.084;2023-02-15T16:39:48;13.27;;;6.20;;
66485;SDS011;53303;47.476;8.084;2023-02-15T16:42:17;10.00;;;6.22;;
66485;SDS011;53303;47.476;8.084;2023-02-15T16:44:46;9.75;;;5.80;;
66485;SDS011;53303;47.476;8.084;2023-02-15T16:47:20;9.98;;;6.53;;
66485;SDS011;53303;47.476;8.084;2023-02-15T16:49:51;9.57;;;6.97;;
66485;SDS011;53303;47.476;8.084;2023-02-15T16:52:23;10.57;;;6.50;;
66485;SDS011;53303;47.476;8.084;2023-02-15T16:54:53;11.93;;;6.63;;
66485;SDS011;53303;47.476;8.084;2023-02-15T16:57:22;12.15;;;6.50;;
66485;SDS011;53303;47.476;8.084;2023-02-15T16:59:52;10.15;;;6.35;;
66485;SDS011;53303;47.476;8.084;2023-02-15T17:02:23;9.18;;;6.15;;
66485;SDS011;53303;47.476;8.084;2023-02-15T17:05:40;10.13;;;6.50;;
66485;SDS011;53303;47.476;8.084;2023-02-15T17:13:26;11.80;;;7.18;;
66485;SDS011;53303;47.476;8.084;2023-02-15T17:20:59;11.27;;;6.65;;
66485;SDS011;53303;47.476;8.084;2023-02-15T17:26:00;9.40;;;6.28;;
66485;SDS011;53303;47.476;8.084;2023-02-15T17:28:37;10.65;;;6.38;;
66485;SDS011;53303;47.476;8.084;2023-02-15T17:31:05;10.20;;;6.50;;
66485;SDS011;53303;47.476;8.084;2023-02-15T17:36:04;10.32;;;6.63;;
66485;SDS011;53303;47.476;8.084;2023-02-15T17:38:37;9.10;;;5.50;;
66485;SDS011;53303;47.476;8.084;2023-02-15T17:41:04;13.45;;;6.32;;
66485;SDS011;53303;47.476;8.084;2023-02-15T17:43:30;9.73;;;5.57;;
66485;SDS011;53303;47.476;8.084;2023-02-15T17:46:00;10.48;;;6.15;;
66485;SDS011;53303;47.476;8.084;2023-02-15T17:50:59;8.77;;;6.15;;
66485;SDS011;53303;47.476;8.084;2023-02-15T17:53:26;10.10;;;6.30;;
66485;SDS011;53303;47.476;8.084;2023-02-15T17:55:54;9.02;;;5.30;;
66485;SDS011;53303;47.476;8.084;2023-02-15T17:58:20;8.43;;;5.50;;
66485;SDS011;53303;47.476;8.084;2023-02-15T18:03:53;8.65;;;5.78;;
66485;SDS011;53303;47.476;8.084;2023-02-15T18:06:38;7.50;;;4.90;;
66485;SDS011;53303;47.476;8.084;2023-02-15T18:09:23;10.13;;;5.10;;
66485;SDS011;53303;47.476;8.084;2023-02-15T18:14:56;9.77;;;5.43;;
66485;SDS011;53303;47.476;8.084;2023-02-15T18:20:19;9.48;;;5.47;;
66485;SDS011;53303;47.476;8.084;2023-02-15T18:22:54;9.25;;;5.40;;
66485;SDS011;53303;47.476;8.084;2023-02-15T18:25:22;9.07;;;5.70;;
66485;SDS011;53303;47.476;8.084;2023-02-15T18:27:49;9.63;;;5.70;;
66485;SDS011;53303;47.476;8.084;2023-02-15T18:30:18;8.52;;;5.43;;
66485;SDS011;53303;47.476;8.084;2023-02-15T18:32:48;9.70;;;5.05;;
66485;SDS011;53303;47.476;8.084;2023-02-15T18:35:16;9.35;;;4.90;;
66485;SDS011;53303;47.476;8.084;2023-02-15T18:37:43;10.38;;;5.72;;
66485;SDS011;53303;47.476;8.084;2023-02-15T18:40:13;8.65;;;4.70;;
66485;SDS011;53303;47.476;8.084;2023-02-15T18:42:43;8.25;;;4.90;;
66485;SDS011;53303;47.476;8.084;2023-02-15T18:47:42;132.82;;;15.43;;
66485;SDS011;53303;47.476;8.084;2023-02-15T18:50:10;110.63;;;13.60;;
66485;SDS011;53303;47.476;8.084;2023-02-15T18:52:42;129.70;;;15.52;;
66485;SDS011;53303;47.476;8.084;2023-02-15T18:55:17;127.57;;;15.85;;
66485;SDS011;53303;47.476;8.084;2023-02-15T18:57:48;134.20;;;17.45;;
66485;SDS011;53303;47.476;8.084;2023-02-15T19:00:34;128.35;;;15.23;;
66485;SDS011;53303;47.476;8.084;2023-02-15T19:03:02;96.35;;;13.10;;
66485;SDS011;53303;47.476;8.084;2023-02-15T19:05:30;107.93;;;12.77;;
66485;SDS011;53303;47.476;8.084;2023-02-15T19:07:57;104.25;;;13.48;;
66485;SDS011;53303;47.476;8.084;2023-02-15T19:10:25;76.53;;;10.70;;
66485;SDS011;53303;47.476;8.084;2023-02-15T19:12:53;80.38;;;10.98;;
66485;SDS011;53303;47.476;8.084;2023-02-15T19:15:24;53.67;;;9.38;;